createdAt,value
2022-11-17T00:00:50.220Z,7.4
2022-11-17T00:05:50.196Z,7.3
2022-11-17T00:10:50.204Z,7.3
2022-11-17T00:15:50.315Z,7.3
2022-11-17T00:20:50.199Z,7.3
2022-11-17T00:25:50.204Z,7.2
2022-11-17T00:30:50.542Z,7.2
2022-11-17T00:35:50.413Z,7.1
2022-11-17T00:40:50.480Z,7.1
2022-11-17T00:45:51.880Z,7.1
2022-11-17T00:50:50.601Z,7
2022-11-17T00:55:50.516Z,7
2022-11-17T01:00:50.298Z,7
2022-11-17T01:05:50.311Z,6.9
2022-11-17T01:10:50.472Z,6.9
2022-11-17T01:15:50.400Z,6.9
2022-11-17T01:20:50.472Z,6.9
2022-11-17T01:25:50.447Z,6.8
2022-11-17T01:30:50.429Z,6.8
2022-11-17T01:35:50.585Z,6.8
2022-11-17T01:40:50.429Z,6.8
2022-11-17T01:45:50.735Z,6.8
2022-11-17T01:50:50.753Z,6.7
2022-11-17T01:55:50.528Z,6.7
2022-11-17T02:00:51.143Z,6.7
2022-11-17T02:05:50.488Z,6.6
2022-11-17T02:10:51.884Z,6.6
2022-11-17T02:15:50.803Z,6.6
2022-11-17T02:20:50.581Z,6.6
2022-11-17T02:25:50.747Z,6.6
2022-11-17T02:30:50.657Z,6.5
2022-11-17T02:35:50.771Z,6.5
2022-11-17T02:40:50.946Z,6.4
2022-11-17T02:45:50.767Z,6.4
2022-11-17T02:50:51.129Z,6.4
2022-11-17T02:55:55.027Z,6.4
2022-11-17T03:00:50.815Z,6.4
2022-11-17T03:05:50.783Z,6.4
2022-11-17T03:10:50.789Z,6.3
2022-11-17T03:15:50.997Z,6.3
2022-11-17T03:20:51.095Z,6.3
2022-11-17T03:25:51.043Z,6.3
2022-11-17T03:30:50.767Z,6.3
2022-11-17T03:35:51.066Z,6.2
2022-11-17T03:40:50.774Z,6.2
2022-11-17T03:45:50.770Z,6.2
2022-11-17T03:50:52.278Z,6.2
2022-11-17T03:55:51.125Z,6.2
2022-11-17T04:00:51.032Z,6.1
2022-11-17T04:05:51.022Z,6.1
2022-11-17T04:10:51.269Z,6.1
2022-11-17T04:15:51.407Z,6.1
2022-11-17T04:20:51.269Z,6.1
2022-11-17T04:25:51.114Z,6.1
2022-11-17T04:30:51.312Z,6.1
2022-11-17T04:35:51.202Z,6
2022-11-17T04:40:51.365Z,6
2022-11-17T04:45:51.101Z,6
2022-11-17T04:50:51.012Z,6
2022-11-17T04:55:51.329Z,6
2022-11-17T05:00:51.256Z,5.9
2022-11-17T05:05:51.247Z,5.9
2022-11-17T05:10:51.335Z,5.9
2022-11-17T05:15:51.300Z,5.9
2022-11-17T05:20:51.488Z,5.9
2022-11-17T05:25:51.249Z,5.9
2022-11-17T05:30:51.528Z,5.9
2022-11-17T05:35:51.373Z,5.9
2022-11-17T05:40:51.272Z,5.9
2022-11-17T05:45:55.292Z,5.9
2022-11-17T05:50:51.284Z,5.9
2022-11-17T05:55:55.404Z,5.9
2022-11-17T06:00:51.583Z,5.9
2022-11-17T06:05:51.542Z,5.8
2022-11-17T06:10:51.293Z,5.8
2022-11-17T06:15:51.431Z,5.8
2022-11-17T06:20:51.280Z,5.8
2022-11-17T06:25:51.277Z,5.8
2022-11-17T06:30:51.459Z,5.8
2022-11-17T06:35:51.489Z,5.8
2022-11-17T06:40:51.495Z,5.8
2022-11-17T06:45:51.453Z,5.8
2022-11-17T06:50:51.683Z,5.8
2022-11-17T06:55:51.607Z,5.8
2022-11-17T07:00:51.633Z,5.8
2022-11-17T07:05:51.489Z,5.8
2022-11-17T07:10:51.479Z,5.8
2022-11-17T07:15:51.539Z,5.8
2022-11-17T07:20:51.487Z,5.8
2022-11-17T07:25:51.541Z,5.9
2022-11-17T07:30:51.481Z,5.9
2022-11-17T07:35:51.813Z,5.9
2022-11-17T07:40:51.709Z,5.9
2022-11-17T07:45:51.885Z,5.9
2022-11-17T07:50:51.790Z,5.9
2022-11-17T07:55:52.053Z,5.9
2022-11-17T08:00:52.093Z,5.9
2022-11-17T08:05:51.994Z,5.9
2022-11-17T08:10:52.045Z,5.9
2022-11-17T08:15:52.031Z,5.9
2022-11-17T08:20:52.064Z,5.9
2022-11-17T08:25:51.987Z,5.8
2022-11-17T08:30:52.010Z,5.8
2022-11-17T08:35:52.308Z,5.9
2022-11-17T08:40:52.207Z,5.9
2022-11-17T08:45:52.185Z,5.9
2022-11-17T08:50:52.178Z,5.9
2022-11-17T08:55:53.006Z,5.9
2022-11-17T09:00:52.343Z,5.9
2022-11-17T09:05:52.513Z,5.9
2022-11-17T09:10:52.496Z,5.9
2022-11-17T09:15:52.763Z,5.9
2022-11-17T09:20:52.699Z,5.9
2022-11-17T09:25:52.416Z,5.9
2022-11-17T09:36:12.455Z,5.9
2022-11-17T09:41:12.367Z,5.9
2022-11-17T09:46:12.340Z,5.9
2022-11-17T09:51:12.263Z,5.9
2022-11-17T09:56:12.364Z,5.9
2022-11-17T10:01:12.617Z,5.9
2022-11-17T10:06:12.262Z,5.9
2022-11-17T10:11:16.405Z,5.9
2022-11-17T10:16:12.244Z,5.9
2022-11-17T10:21:12.284Z,5.9
2022-11-17T10:26:12.262Z,5.9
2022-11-17T10:31:12.430Z,5.9
2022-11-17T10:36:16.221Z,5.9
2022-11-17T10:41:13.293Z,6
2022-11-17T10:46:12.230Z,5.9
2022-11-17T10:51:12.289Z,6
2022-11-17T10:56:16.247Z,6
2022-11-17T11:01:12.274Z,6
2022-11-17T11:06:17.325Z,6
2022-11-17T11:11:12.266Z,6.1
2022-11-17T11:16:12.237Z,6.1
2022-11-17T11:21:12.232Z,6.1
2022-11-17T11:26:12.253Z,6.1
2022-11-17T11:31:12.346Z,6.1
2022-11-17T11:36:12.231Z,6.1
2022-11-17T11:41:12.243Z,6.1
2022-11-17T11:46:12.234Z,6.1
2022-11-17T11:51:12.350Z,6.2
2022-11-17T11:56:12.234Z,6.2
2022-11-17T12:01:12.219Z,6.2
2022-11-17T12:06:12.238Z,6.2
2022-11-17T12:11:12.221Z,6.2
2022-11-17T12:16:12.229Z,6.2
2022-11-17T12:21:12.255Z,6.3
2022-11-17T12:26:12.268Z,6.3
2022-11-17T12:31:12.314Z,6.3
2022-11-17T12:36:12.258Z,6.3
2022-11-17T12:41:12.256Z,6.3
2022-11-17T12:46:12.330Z,6.3
2022-11-17T12:51:12.307Z,6.3
2022-11-17T12:56:12.212Z,6.3
2022-11-17T13:01:12.262Z,6.3
2022-11-17T13:06:34.186Z,6.3
2022-11-17T13:11:12.329Z,6.4
2022-11-17T13:16:12.379Z,6.4
2022-11-17T13:21:12.388Z,6.4
2022-11-17T13:26:12.276Z,6.4
2022-11-17T13:31:12.334Z,6.4
2022-11-17T13:36:12.360Z,6.4
2022-11-17T13:41:12.254Z,6.5
2022-11-17T13:46:12.241Z,6.5
2022-11-17T13:51:12.418Z,6.6
2022-11-17T13:56:12.243Z,6.6
2022-11-17T14:01:12.479Z,6.7
2022-11-17T14:06:12.257Z,6.7
2022-11-17T14:11:12.312Z,6.7
2022-11-17T14:16:12.242Z,6.7
2022-11-17T14:21:12.417Z,6.7
2022-11-17T14:26:12.319Z,6.7
2022-11-17T14:31:12.299Z,6.7
2022-11-17T14:36:12.256Z,6.6
2022-11-17T14:41:12.262Z,6.6
2022-11-17T14:46:12.254Z,6.6
2022-11-17T14:51:12.297Z,6.6
2022-11-17T14:56:12.270Z,6.6
2022-11-17T15:01:12.268Z,6.5
2022-11-17T15:06:16.835Z,6.5
2022-11-17T15:11:12.278Z,6.5
2022-11-17T15:16:12.250Z,6.4
2022-11-17T15:21:12.266Z,6.4
2022-11-17T15:26:12.282Z,6.4
2022-11-17T15:31:12.394Z,6.4
2022-11-17T15:36:12.255Z,6.4
2022-11-17T15:41:12.263Z,6.3
2022-11-17T15:46:12.259Z,6.3
2022-11-17T15:51:12.287Z,6.3
2022-11-17T15:56:12.253Z,6.3
2022-11-17T16:01:12.434Z,6.2
2022-11-17T16:06:12.271Z,6.2
2022-11-17T16:11:12.353Z,6.2
2022-11-17T16:16:12.275Z,6.1
2022-11-17T16:21:12.253Z,6.1
2022-11-17T16:26:12.280Z,6.1
2022-11-17T16:31:12.285Z,6.1
2022-11-17T16:36:12.262Z,6.1
2022-11-17T16:41:12.250Z,6.1
2022-11-17T16:46:12.248Z,6
2022-11-17T16:51:12.271Z,6
2022-11-17T16:56:12.249Z,5.9
2022-11-17T17:01:12.603Z,5.9
2022-11-17T17:06:12.275Z,5.9
2022-11-17T17:11:12.445Z,5.9
2022-11-17T17:16:12.267Z,5.9
2022-11-17T17:21:12.278Z,5.9
2022-11-17T17:26:12.277Z,5.8
2022-11-17T17:31:15.423Z,5.8
2022-11-17T17:36:12.271Z,5.8
2022-11-17T17:41:12.269Z,5.8
2022-11-17T17:46:15.535Z,5.8
2022-11-17T17:51:12.294Z,5.8
2022-11-17T17:56:12.257Z,5.7
2022-11-17T18:01:12.271Z,5.7
2022-11-17T18:06:12.250Z,5.7
2022-11-17T18:11:12.291Z,5.6
2022-11-17T18:16:12.252Z,5.6
2022-11-17T18:21:12.252Z,5.6
2022-11-17T20:09:22.890Z,5.3
2022-11-17T20:14:22.875Z,5.3
2022-11-17T20:19:22.832Z,5.3
2022-11-17T20:24:22.844Z,5.3
2022-11-17T20:29:22.987Z,5.2
2022-11-17T20:34:22.773Z,5.2
2022-11-17T20:39:22.782Z,5.2
2022-11-17T20:44:22.763Z,5.2
2022-11-17T20:49:22.799Z,5.1
2022-11-17T20:54:22.789Z,5.1
2022-11-17T20:59:23.069Z,5.1
2022-11-17T21:04:22.802Z,5.1
2022-11-17T21:09:22.801Z,5.1
2022-11-17T21:14:22.787Z,5.1
2022-11-17T21:19:22.781Z,5.1
2022-11-17T21:24:22.767Z,5.1
2022-11-17T21:29:22.952Z,5.1
2022-11-17T21:34:22.775Z,5.1
2022-11-17T21:39:22.773Z,5.1
2022-11-17T21:44:22.769Z,5.1
2022-11-17T21:49:22.839Z,5
2022-11-17T21:54:22.791Z,5
2022-11-17T21:59:22.737Z,5
2022-11-17T22:04:22.788Z,5
2022-11-17T22:09:22.762Z,4.9
2022-11-17T22:14:22.779Z,4.9
2022-11-17T22:19:22.883Z,4.9
2022-11-17T22:24:22.785Z,4.9
2022-11-17T22:29:22.775Z,4.9
2022-11-17T22:34:22.734Z,4.9
2022-11-17T22:39:22.772Z,4.8
2022-11-17T22:44:22.740Z,4.8
2022-11-17T22:49:22.879Z,4.8
2022-11-17T22:54:22.769Z,4.8
2022-11-17T22:59:22.760Z,4.8
2022-11-17T23:04:22.786Z,4.8
2022-11-17T23:09:22.793Z,4.8
2022-11-17T23:14:22.764Z,4.8
2022-11-17T23:19:22.762Z,4.8
2022-11-17T23:24:22.766Z,4.7
2022-11-17T23:29:22.792Z,4.7
2022-11-17T23:34:22.775Z,4.7
2022-11-17T23:39:22.726Z,4.7
2022-11-17T23:44:22.767Z,4.6
2022-11-17T23:49:22.783Z,4.6
2022-11-17T23:54:22.763Z,4.6
2022-11-17T23:59:22.760Z,4.6
